Time;durP1;ratioP1;P1;durP2;ratioP2;P2;SDS_P1;SDS_P2;PMS_P1;PMS_P2;Temp;Humidity;BMP_temperature;BMP_pressure;BME280_temperature;BME280_humidity;BME280_pressure;Samples;Min_cycle;Max_cycle;Signal;HPM_P1;HPM_P2
2023/04/05 00:00:22;;;;;;;2.38;1.30;;;3.70;99.90;;;;;;5094659;28;20632;-52
2023/04/05 00:02:49;;;;;;;2.53;1.60;;;3.60;99.90;;;;;;5095356;28;20907;-53
2023/04/05 00:05:28;;;;;;;2.50;1.20;;;3.70;99.90;;;;;;5094422;28;20825;-51
2023/04/05 00:07:58;;;;;;;2.40;1.50;;;3.70;99.90;;;;;;5093804;28;20422;-51
2023/04/05 00:10:25;;;;;;;1.83;1.33;;;3.70;99.90;;;;;;5093948;28;20430;-48
2023/04/05 00:12:52;;;;;;;2.38;1.25;;;3.70;99.90;;;;;;5093101;28;20425;-48
2023/04/05 00:15:19;;;;;;;2.10;1.50;;;3.70;99.90;;;;;;5093828;28;20433;-52
2023/04/05 00:17:46;;;;;;;2.08;1.30;;;3.70;99.90;;;;;;5093847;28;20414;-49
2023/04/05 00:20:13;;;;;;;2.33;1.38;;;3.80;99.90;;;;;;5093477;28;20432;-50
2023/04/05 00:22:43;;;;;;;2.20;1.20;;;3.70;99.90;;;;;;5094648;28;20824;-50
2023/04/05 00:25:12;;;;;;;1.80;1.10;;;3.70;99.90;;;;;;5094398;28;20463;-49
2023/04/05 00:27:39;;;;;;;3.47;1.48;;;3.70;99.90;;;;;;5095013;28;20513;-51
2023/04/05 00:30:07;;;;;;;2.00;1.37;;;3.70;99.90;;;;;;5093794;28;20432;-52
2023/04/05 00:32:34;;;;;;;1.60;1.10;;;3.70;99.90;;;;;;5093442;28;20422;-50
2023/04/05 00:35:01;;;;;;;2.88;1.40;;;3.70;99.90;;;;;;5093086;28;20529;-48
2023/04/05 00:37:28;;;;;;;2.45;1.48;;;3.70;99.90;;;;;;5093608;28;20448;-51
2023/04/05 00:39:56;;;;;;;2.55;1.40;;;3.60;99.90;;;;;;5092992;28;20760;-52
2023/04/05 00:42:24;;;;;;;2.08;1.23;;;3.60;99.90;;;;;;5093135;28;20418;-53
2023/04/05 00:44:51;;;;;;;1.80;1.30;;;3.60;99.90;;;;;;5093566;28;20830;-49
2023/04/05 00:47:18;;;;;;;3.00;1.50;;;3.60;99.90;;;;;;5093930;28;20422;-49
2023/04/05 00:49:46;;;;;;;1.50;1.20;;;3.60;99.90;;;;;;5094063;28;20429;-50
2023/04/05 00:52:15;;;;;;;1.83;1.30;;;3.60;99.90;;;;;;5093274;28;20425;-53
2023/04/05 00:54:42;;;;;;;1.60;1.30;;;3.50;99.90;;;;;;5093978;28;20430;-49
2023/04/05 00:57:09;;;;;;;2.85;1.30;;;3.60;99.90;;;;;;5094778;28;20409;-48
2023/04/05 00:59:38;;;;;;;2.50;1.10;;;3.50;99.90;;;;;;5094101;28;20418;-49
2023/04/05 01:02:15;;;;;;;2.20;1.20;;;3.40;99.90;;;;;;5093250;28;20825;-50
2023/04/05 01:04:48;;;;;;;2.83;1.40;;;3.30;99.90;;;;;;5092867;28;20483;-49
2023/04/05 01:07:28;;;;;;;3.10;1.20;;;3.20;99.90;;;;;;5093894;28;20443;-51
2023/04/05 01:09:57;;;;;;;1.67;1.20;;;3.20;99.90;;;;;;5093324;28;20437;-51
2023/04/05 01:12:28;;;;;;;2.13;1.33;;;3.20;99.90;;;;;;5093352;28;20425;-49
2023/04/05 01:14:56;;;;;;;2.30;1.25;;;3.10;99.90;;;;;;5093074;28;20433;-49
2023/04/05 01:17:27;;;;;;;2.10;1.30;;;3.10;99.90;;;;;;5093918;28;20418;-48
2023/04/05 01:19:58;;;;;;;2.55;1.40;;;3.10;99.90;;;;;;5093919;28;20418;-48
2023/04/05 01:23:10;;;;;;;2.28;1.60;;;3.00;99.90;;;;;;5093836;28;20425;-48
2023/04/05 01:26:06;;;;;;;2.03;1.30;;;3.10;99.90;;;;;;5055432;28;20422;-50
2023/04/05 01:28:56;;;;;;;3.10;1.40;;;3.00;99.90;;;;;;5092460;28;20428;-49
2023/04/05 01:31:30;;;;;;;1.92;1.20;;;3.00;99.90;;;;;;5091077;28;20426;-49
2023/04/05 01:34:03;;;;;;;1.98;1.40;;;3.10;99.90;;;;;;5092694;28;20430;-52
2023/04/05 01:36:34;;;;;;;1.70;1.20;;;3.10;99.90;;;;;;5092813;28;21004;-52
2023/04/05 01:39:04;;;;;;;2.20;1.40;;;3.10;99.90;;;;;;5093329;28;20591;-52
2023/04/05 01:41:31;;;;;;;1.45;1.17;;;3.10;99.90;;;;;;5094460;28;20445;-50
2023/04/05 01:43:58;;;;;;;2.92;1.30;;;3.10;99.90;;;;;;5094143;28;20726;-49
2023/04/05 01:46:27;;;;;;;1.83;1.20;;;3.10;99.90;;;;;;5093197;28;20422;-50
2023/04/05 01:48:54;;;;;;;3.60;1.30;;;3.00;99.90;;;;;;5096173;28;20422;-53
2023/04/05 01:51:21;;;;;;;2.20;1.20;;;3.00;99.90;;;;;;5095789;28;20428;-50
2023/04/05 01:53:48;;;;;;;3.00;1.20;;;2.90;99.90;;;;;;5095363;28;21196;-50
2023/04/05 01:56:15;;;;;;;2.00;1.40;;;3.00;99.90;;;;;;5094595;28;20436;-51
2023/04/05 01:58:42;;;;;;;2.10;1.70;;;2.90;99.90;;;;;;5095567;28;20425;-51
2023/04/05 02:01:10;;;;;;;2.08;1.40;;;2.90;99.90;;;;;;5096036;28;20426;-50
2023/04/05 02:03:39;;;;;;;2.00;1.20;;;2.90;99.90;;;;;;5097234;28;20737;-53
2023/04/05 02:06:06;;;;;;;2.40;1.20;;;3.00;99.90;;;;;;5097124;28;20524;-50
2023/04/05 02:08:33;;;;;;;2.40;1.40;;;3.20;99.90;;;;;;5097001;28;20844;-50
2023/04/05 02:11:00;;;;;;;2.20;1.38;;;3.10;99.90;;;;;;5097967;28;20861;-49
2023/04/05 02:13:27;;;;;;;3.40;1.40;;;3.10;99.90;;;;;;5097348;28;20845;-53
2023/04/05 02:15:54;;;;;;;2.80;1.20;;;3.00;99.90;;;;;;5097127;28;20478;-52
2023/04/05 02:18:28;;;;;;;2.47;1.33;;;2.90;99.90;;;;;;5096297;28;20418;-48
2023/04/05 02:21:01;;;;;;;2.70;1.40;;;2.90;99.90;;;;;;5097011;28;20454;-48
2023/04/05 02:23:29;;;;;;;2.70;1.30;;;2.70;99.90;;;;;;5096208;28;20421;-48
2023/04/05 02:25:56;;;;;;;2.80;1.30;;;2.70;99.90;;;;;;5096243;28;20717;-50
2023/04/05 02:28:24;;;;;;;3.33;1.50;;;2.70;99.90;;;;;;5094556;28;20441;-50
2023/04/05 02:30:51;;;;;;;3.33;1.30;;;2.70;99.90;;;;;;5095106;28;20736;-50
2023/04/05 02:33:18;;;;;;;3.70;1.60;;;2.70;99.90;;;;;;5095249;28;20418;-49
2023/04/05 02:35:47;;;;;;;2.67;1.30;;;2.70;99.90;;;;;;5094952;28;20462;-50
2023/04/05 02:38:16;;;;;;;2.63;1.40;;;2.80;99.90;;;;;;5094585;28;20421;-49
2023/04/05 02:40:45;;;;;;;2.37;1.40;;;2.80;99.90;;;;;;5094941;28;20510;-48
2023/04/05 02:43:13;;;;;;;1.80;1.20;;;2.80;99.90;;;;;;5096740;28;20414;-54
2023/04/05 02:45:40;;;;;;;1.90;1.30;;;2.80;99.90;;;;;;5096247;28;20422;-48
2023/04/05 02:48:07;;;;;;;1.73;1.33;;;2.70;99.90;;;;;;5096990;28;20418;-50
2023/04/05 02:50:34;;;;;;;1.67;1.33;;;2.60;99.90;;;;;;5096755;28;20462;-51
2023/04/05 02:53:01;;;;;;;3.10;1.40;;;2.50;99.90;;;;;;5096337;28;20736;-52
2023/04/05 02:55:32;;;;;;;3.80;1.70;;;2.50;99.90;;;;;;5096033;28;20731;-52
2023/04/05 02:58:00;;;;;;;2.60;1.45;;;2.60;99.90;;;;;;5095345;28;20440;-52
2023/04/05 03:00:27;;;;;;;3.22;1.50;;;2.60;99.90;;;;;;5097232;28;20741;-55
2023/04/05 03:02:55;;;;;;;2.00;1.25;;;2.50;99.90;;;;;;5096310;28;20483;-53
2023/04/05 03:05:22;;;;;;;2.23;1.30;;;2.50;99.90;;;;;;5096286;28;20418;-50
2023/04/05 03:07:51;;;;;;;1.95;1.30;;;2.40;99.90;;;;;;5095297;28;20512;-52
2023/04/05 03:10:21;;;;;;;2.00;1.20;;;2.40;99.90;;;;;;5094666;28;20892;-51
2023/04/05 03:12:50;;;;;;;2.00;1.50;;;2.40;99.90;;;;;;5094972;28;20776;-52
2023/04/05 03:15:17;;;;;;;2.10;1.30;;;2.40;99.90;;;;;;5094193;28;20437;-47
2023/04/05 03:17:44;;;;;;;1.83;1.23;;;2.40;99.90;;;;;;5094233;28;20424;-51
2023/04/05 03:20:13;;;;;;;2.10;1.40;;;2.30;99.90;;;;;;5093352;28;20429;-52
2023/04/05 03:22:40;;;;;;;2.30;1.30;;;2.30;99.90;;;;;;5093341;28;20409;-51
2023/04/05 03:25:08;;;;;;;2.20;1.30;;;2.30;99.90;;;;;;5093776;28;20516;-55
2023/04/05 03:27:35;;;;;;;2.88;1.30;;;2.30;99.90;;;;;;5094476;28;20809;-52
2023/04/05 03:30:04;;;;;;;2.42;1.30;;;2.20;99.90;;;;;;5094230;28;20479;-51
2023/04/05 03:32:31;;;;;;;3.20;1.50;;;2.10;99.90;;;;;;5095285;28;20729;-47
2023/04/05 03:34:58;;;;;;;3.08;1.50;;;2.00;99.90;;;;;;5094087;28;20729;-50
2023/04/05 03:37:25;;;;;;;2.80;1.30;;;2.10;99.90;;;;;;5094700;28;20413;-48
2023/04/05 03:39:53;;;;;;;2.08;1.35;;;2.10;99.90;;;;;;5093910;28;20726;-49
2023/04/05 03:42:20;;;;;;;3.67;1.40;;;2.10;99.90;;;;;;5095175;28;20413;-51
2023/04/05 03:44:50;;;;;;;2.55;1.60;;;2.10;99.90;;;;;;5095426;28;20485;-49
2023/04/05 03:47:18;;;;;;;2.72;1.40;;;2.10;99.90;;;;;;5095472;28;20417;-48
2023/04/05 03:49:46;;;;;;;3.30;1.20;;;2.10;99.90;;;;;;5094779;28;20425;-48
2023/04/05 03:52:13;;;;;;;2.55;1.50;;;2.10;99.90;;;;;;5094563;28;20414;-50
2023/04/05 03:54:40;;;;;;;1.90;1.40;;;2.00;99.90;;;;;;5094402;28;20430;-49
2023/04/05 03:57:07;;;;;;;3.00;1.60;;;2.00;99.90;;;;;;5095244;28;20414;-51
2023/04/05 03:59:34;;;;;;;2.30;1.25;;;2.00;99.90;;;;;;5095606;28;20418;-50
2023/04/05 04:02:02;;;;;;;2.05;1.50;;;2.00;99.90;;;;;;5095197;28;20426;-48
2023/04/05 04:04:31;;;;;;;2.10;1.60;;;1.90;99.90;;;;;;5094653;28;20425;-49
2023/04/05 04:06:58;;;;;;;2.78;1.40;;;1.90;99.90;;;;;;5094649;28;20439;-51
2023/04/05 04:09:26;;;;;;;3.03;1.40;;;1.90;99.90;;;;;;5094713;28;20410;-53
2023/04/05 04:11:53;;;;;;;2.00;1.38;;;1.80;99.90;;;;;;5094457;28;20741;-50
2023/04/05 04:14:20;;;;;;;3.25;1.83;;;1.90;99.90;;;;;;5093581;28;20811;-49
2023/04/05 04:16:47;;;;;;;2.20;1.50;;;1.80;99.90;;;;;;5095322;28;20429;-51
2023/04/05 04:19:16;;;;;;;1.87;1.20;;;1.80;99.90;;;;;;5093944;28;20492;-51
2023/04/05 04:21:49;;;;;;;3.95;1.50;;;1.80;99.90;;;;;;5094605;28;20430;-50
2023/04/05 04:24:17;;;;;;;2.00;1.20;;;1.80;99.90;;;;;;5095217;28;20467;-48
2023/04/05 04:26:45;;;;;;;2.00;1.40;;;1.90;99.90;;;;;;5094585;28;20426;-49
2023/04/05 04:29:14;;;;;;;3.45;1.52;;;1.80;99.90;;;;;;5094702;28;20417;-48
2023/04/05 04:31:44;;;;;;;2.90;1.48;;;1.70;99.90;;;;;;5095057;28;20504;-48
2023/04/05 04:34:12;;;;;;;2.50;1.60;;;1.80;99.90;;;;;;5094631;28;20475;-49
2023/04/05 04:36:41;;;;;;;2.73;1.40;;;1.80;99.90;;;;;;5095111;28;20861;-51
2023/04/05 04:39:12;;;;;;;2.72;1.30;;;1.70;99.90;;;;;;5094144;28;20493;-48
2023/04/05 04:41:45;;;;;;;3.20;1.70;;;1.70;99.90;;;;;;5094242;28;20433;-52
2023/04/05 04:44:13;;;;;;;3.20;1.80;;;1.60;99.90;;;;;;5094612;28;20476;-57
2023/04/05 04:46:42;;;;;;;2.50;1.80;;;1.60;99.90;;;;;;5094328;28;20425;-49
2023/04/05 04:49:09;;;;;;;2.92;1.60;;;1.70;99.90;;;;;;5093946;28;20456;-49
2023/04/05 04:51:38;;;;;;;2.65;1.40;;;1.60;99.90;;;;;;5093181;28;20422;-50
2023/04/05 04:54:06;;;;;;;3.35;1.60;;;1.60;99.90;;;;;;5094579;28;20410;-52
2023/04/05 04:56:34;;;;;;;4.00;1.30;;;1.60;99.90;;;;;;5093994;28;20527;-48
2023/04/05 04:59:01;;;;;;;3.42;1.55;;;1.60;99.90;;;;;;5094660;28;20422;-50
2023/04/05 05:01:28;;;;;;;2.30;1.40;;;1.60;99.90;;;;;;5092946;28;20422;-52
2023/04/05 05:03:56;;;;;;;2.97;1.53;;;1.70;99.90;;;;;;5094821;28;20414;-53
2023/04/05 05:06:23;;;;;;;2.40;1.40;;;1.70;99.90;;;;;;5093393;28;20418;-53
2023/04/05 05:08:50;;;;;;;3.30;1.70;;;1.70;99.90;;;;;;5091882;28;20481;-50
2023/04/05 05:11:18;;;;;;;2.50;2.00;;;1.70;99.90;;;;;;5090925;28;20596;-50
2023/04/05 05:13:46;;;;;;;2.70;1.50;;;1.80;99.90;;;;;;5091950;28;20703;-48
2023/04/05 05:16:13;;;;;;;4.82;1.80;;;1.80;99.90;;;;;;5092790;28;20461;-51
2023/04/05 05:18:41;;;;;;;3.63;1.60;;;1.90;99.90;;;;;;5093652;28;20418;-55
2023/04/05 05:21:08;;;;;;;2.30;1.42;;;1.90;99.90;;;;;;5093330;28;20422;-53
2023/04/05 05:23:35;;;;;;;2.53;1.30;;;2.20;99.90;;;;;;5094486;28;20965;-52
2023/04/05 05:26:02;;;;;;;3.33;1.50;;;2.90;99.90;;;;;;5091506;28;20833;-51
2023/04/05 05:28:30;;;;;;;2.22;1.40;;;3.10;99.90;;;;;;5092203;28;20833;-51
2023/04/05 05:30:58;;;;;;;3.15;1.50;;;3.30;99.90;;;;;;5091178;28;20433;-52
2023/04/05 05:33:25;;;;;;;3.00;1.52;;;3.00;99.90;;;;;;5094865;28;20436;-50
2023/04/05 05:35:52;;;;;;;1.90;1.30;;;2.60;99.90;;;;;;5093228;28;20876;-53
2023/04/05 05:38:20;;;;;;;2.70;1.60;;;2.30;99.90;;;;;;5093740;28;20612;-50
2023/04/05 05:40:47;;;;;;;3.40;1.70;;;2.00;99.90;;;;;;5096210;28;20868;-51
2023/04/05 05:43:15;;;;;;;3.95;1.60;;;1.80;99.90;;;;;;5094189;28;20409;-49
2023/04/05 05:45:42;;;;;;;5.07;2.42;;;1.60;99.90;;;;;;5095109;28;20479;-50
2023/04/05 05:48:10;;;;;;;3.85;1.90;;;1.40;99.90;;;;;;5093308;28;20425;-49
2023/04/05 05:50:38;;;;;;;4.22;1.70;;;1.40;99.90;;;;;;5095931;28;20521;-52
2023/04/05 05:53:05;;;;;;;2.40;1.90;;;1.40;99.90;;;;;;5094425;28;20432;-49
2023/04/05 05:55:32;;;;;;;2.45;1.80;;;1.40;99.90;;;;;;5095004;28;20441;-51
2023/04/05 05:57:59;;;;;;;3.03;1.73;;;1.40;99.90;;;;;;5092948;28;20426;-50
2023/04/05 06:00:26;;;;;;;4.10;2.25;;;1.40;99.90;;;;;;5093868;28;20463;-52
2023/04/05 06:02:53;;;;;;;3.63;1.85;;;1.50;99.90;;;;;;5093433;28;20422;-50
2023/04/05 06:05:22;;;;;;;3.58;1.58;;;1.50;99.90;;;;;;5091928;28;20426;-53
2023/04/05 06:07:49;;;;;;;4.60;2.30;;;1.60;99.90;;;;;;5090930;28;20428;-54
2023/04/05 06:10:17;;;;;;;3.28;1.92;;;1.60;99.90;;;;;;5093205;28;20440;-52
2023/04/05 06:12:44;;;;;;;3.25;1.90;;;1.70;99.90;;;;;;5092743;28;20453;-49
2023/04/05 06:15:11;;;;;;;3.20;2.10;;;1.80;99.90;;;;;;5092005;28;20460;-52
2023/04/05 06:17:41;;;;;;;4.10;2.23;;;1.90;99.90;;;;;;5091589;28;20807;-51
2023/04/05 06:20:10;;;;;;;5.03;2.60;;;2.00;99.90;;;;;;5091939;28;20422;-50
2023/04/05 06:22:40;;;;;;;3.33;2.00;;;2.30;99.90;;;;;;5092988;28;20418;-48
2023/04/05 06:25:08;;;;;;;4.37;2.20;;;2.40;99.90;;;;;;5090401;28;20426;-53
2023/04/05 06:27:35;;;;;;;3.30;2.15;;;2.60;99.90;;;;;;5091565;28;20604;-51
2023/04/05 06:30:03;;;;;;;3.50;1.92;;;2.60;99.90;;;;;;5091050;28;20849;-49
2023/04/05 06:32:30;;;;;;;3.00;2.40;;;2.50;99.90;;;;;;5094235;28;20978;-49
2023/04/05 06:34:57;;;;;;;3.50;2.70;;;2.50;99.90;;;;;;5094040;28;20453;-58
2023/04/05 06:37:24;;;;;;;4.30;2.60;;;2.60;99.90;;;;;;5094967;28;20430;-50
2023/04/05 06:39:52;;;;;;;3.75;2.78;;;2.70;99.90;;;;;;5092705;28;20429;-49
2023/04/05 06:42:19;;;;;;;4.78;2.55;;;2.70;99.90;;;;;;5092013;28;20421;-50
2023/04/05 06:44:46;;;;;;;3.60;2.30;;;2.90;99.90;;;;;;5094562;28;20921;-53
2023/04/05 06:47:16;;;;;;;4.22;2.20;;;2.90;99.90;;;;;;5093970;28;20737;-52
2023/04/05 06:49:44;;;;;;;4.70;3.10;;;3.00;99.90;;;;;;5094234;28;20425;-53
2023/04/05 06:52:11;;;;;;;5.03;2.55;;;3.20;99.90;;;;;;5093407;28;20478;-49
2023/04/05 06:54:38;;;;;;;6.25;2.75;;;3.40;99.90;;;;;;5094028;28;20436;-52
2023/04/05 06:57:07;;;;;;;4.80;2.50;;;3.50;99.90;;;;;;5094137;28;20509;-55
2023/04/05 06:59:34;;;;;;;3.75;2.20;;;3.60;99.90;;;;;;5093150;28;20725;-48
2023/04/05 07:02:01;;;;;;;3.80;2.22;;;3.60;99.90;;;;;;5092780;28;20432;-53
2023/04/05 07:04:32;;;;;;;5.75;2.50;;;3.50;99.90;;;;;;5091824;28;20665;-52
2023/04/05 07:07:02;;;;;;;4.15;2.35;;;3.70;99.90;;;;;;5094186;28;20434;-49
2023/04/05 07:09:31;;;;;;;3.55;2.30;;;3.80;99.90;;;;;;5094937;28;20795;-50
2023/04/05 07:11:58;;;;;;;3.60;2.42;;;3.80;99.90;;;;;;5093744;28;20448;-47
2023/04/05 07:14:27;;;;;;;3.92;1.90;;;3.70;99.90;;;;;;5109320;28;20428;-54
2023/04/05 07:16:54;;;;;;;3.60;2.40;;;3.60;99.90;;;;;;5093932;28;20434;-53
2023/04/05 07:19:21;;;;;;;4.20;2.35;;;3.70;99.90;;;;;;5093078;28;20418;-51
2023/04/05 07:21:48;;;;;;;2.95;1.83;;;3.90;99.90;;;;;;5099439;28;20526;-51
2023/04/05 07:24:15;;;;;;;3.90;1.90;;;4.00;99.90;;;;;;5101148;28;20437;-50
2023/04/05 07:26:43;;;;;;;5.00;2.30;;;4.10;99.90;;;;;;5093596;28;20426;-53
2023/04/05 07:29:10;;;;;;;3.40;2.10;;;4.00;99.90;;;;;;5091959;28;20946;-52
2023/04/05 07:31:40;;;;;;;3.72;2.10;;;4.00;99.90;;;;;;5093615;28;20746;-53
2023/04/05 07:34:07;;;;;;;4.70;2.63;;;3.90;99.90;;;;;;5103438;28;20440;-59
2023/04/05 07:36:34;;;;;;;3.80;2.40;;;3.90;99.90;;;;;;5090859;28;20932;-56
2023/04/05 07:39:01;;;;;;;3.67;2.60;;;4.10;99.90;;;;;;5092556;28;20424;-57
2023/04/05 07:41:31;;;;;;;3.50;2.30;;;4.40;99.90;;;;;;5103427;28;20435;-57
2023/04/05 07:43:59;;;;;;;3.03;2.50;;;4.70;99.90;;;;;;5094102;28;20507;-57
2023/04/05 07:46:27;;;;;;;4.40;2.80;;;4.80;99.90;;;;;;5091751;28;20421;-59
2023/04/05 07:48:55;;;;;;;3.60;2.83;;;4.80;99.90;;;;;;5101126;28;20432;-59
2023/04/05 07:51:22;;;;;;;7.03;3.05;;;4.90;99.90;;;;;;5101545;28;20544;-59
2023/04/05 07:53:50;;;;;;;4.20;2.83;;;4.70;99.90;;;;;;5093002;28;20905;-59
2023/04/05 07:56:17;;;;;;;3.50;2.22;;;4.50;99.90;;;;;;5110541;28;20429;-59
2023/04/05 07:58:44;;;;;;;4.75;4.05;;;4.50;99.90;;;;;;5112628;28;20419;-58
2023/04/05 08:01:12;;;;;;;4.20;3.40;;;4.60;99.90;;;;;;5113602;28;20795;-59
2023/04/05 08:03:39;;;;;;;4.03;3.20;;;4.70;99.90;;;;;;5111957;28;20831;-58
2023/04/05 08:06:12;;;;;;;4.82;3.65;;;4.90;99.90;;;;;;5110530;28;20424;-58
2023/04/05 08:08:40;;;;;;;4.63;3.10;;;5.00;99.90;;;;;;5101495;28;20709;-57
2023/04/05 08:11:07;;;;;;;5.00;3.90;;;5.10;99.90;;;;;;5104381;28;20464;-59
2023/04/05 08:13:35;;;;;;;4.50;3.10;;;5.40;99.90;;;;;;5091881;28;20440;-58
2023/04/05 08:16:02;;;;;;;5.03;3.33;;;5.40;99.90;;;;;;5089220;28;20434;-58
2023/04/05 08:18:29;;;;;;;3.85;2.88;;;5.60;99.90;;;;;;5091627;28;20418;-58
2023/04/05 08:20:58;;;;;;;4.28;3.88;;;5.60;99.90;;;;;;5091523;28;20433;-58
2023/04/05 08:23:27;;;;;;;6.25;3.63;;;5.60;99.90;;;;;;5092987;28;20856;-59
2023/04/05 08:25:54;;;;;;;6.38;3.13;;;5.70;99.90;;;;;;5092453;28;20424;-57
2023/04/05 08:28:22;;;;;;;5.30;3.07;;;5.70;99.90;;;;;;5092002;28;20532;-60
2023/04/05 08:30:54;;;;;;;5.38;3.35;;;5.80;99.90;;;;;;5101030;28;20524;-60
2023/04/05 08:33:21;;;;;;;4.80;3.53;;;5.90;99.90;;;;;;5094178;28;20425;-59
2023/04/05 08:35:48;;;;;;;4.65;3.17;;;6.10;99.90;;;;;;5109122;28;20485;-59
2023/04/05 08:38:15;;;;;;;3.30;2.58;;;6.20;99.90;;;;;;5090172;28;20724;-60
2023/04/05 08:40:45;;;;;;;5.30;3.17;;;6.20;99.90;;;;;;5091993;28;20816;-59
2023/04/05 08:43:17;;;;;;;3.47;2.70;;;6.40;99.90;;;;;;5101844;28;20438;-58
2023/04/05 08:45:49;;;;;;;4.50;2.40;;;6.60;99.90;;;;;;5095714;28;20439;-58
2023/04/05 08:48:16;;;;;;;5.70;3.40;;;6.60;99.90;;;;;;5111487;28;20416;-60
2023/04/05 08:50:49;;;;;;;3.30;2.70;;;6.70;99.90;;;;;;5111094;28;20412;-61
2023/04/05 08:53:16;;;;;;;3.15;2.50;;;6.70;99.90;;;;;;5098738;28;20467;-60
2023/04/05 08:55:49;;;;;;;4.30;2.58;;;6.60;99.90;;;;;;5091472;28;20434;-58
2023/04/05 08:58:16;;;;;;;4.25;1.92;;;6.70;99.90;;;;;;5094069;28;20680;-58
2023/04/05 09:00:43;;;;;;;3.55;2.00;;;6.70;99.90;;;;;;5095195;28;20528;-58
2023/04/05 09:03:16;;;;;;;3.20;2.47;;;6.80;99.90;;;;;;5097403;28;20414;-61
2023/04/05 09:05:48;;;;;;;4.07;2.65;;;6.80;99.90;;;;;;5095899;28;20867;-58
2023/04/05 09:08:16;;;;;;;3.05;1.60;;;6.90;99.90;;;;;;5093500;28;20832;-58
2023/04/05 09:10:45;;;;;;;2.10;1.90;;;6.80;98.30;;;;;;5094038;28;20434;-60
2023/04/05 09:13:12;;;;;;;2.85;1.90;;;7.10;99.00;;;;;;5095457;28;20414;-58
2023/04/05 09:15:40;;;;;;;3.78;2.20;;;7.40;97.70;;;;;;5109244;28;20744;-60
2023/04/05 09:18:07;;;;;;;2.15;1.88;;;7.40;96.90;;;;;;5115513;28;20427;-59
2023/04/05 09:20:34;;;;;;;2.00;1.35;;;7.70;96.00;;;;;;5115396;28;20535;-60
2023/04/05 09:23:01;;;;;;;2.70;1.60;;;7.60;92.10;;;;;;5116664;28;20766;-58
2023/04/05 09:25:37;;;;;;;2.25;1.40;;;7.40;93.30;;;;;;5098398;28;20549;-57
2023/04/05 09:28:07;;;;;;;2.20;1.30;;;7.30;93.30;;;;;;5094141;28;20412;-59
2023/04/05 09:30:35;;;;;;;1.70;1.10;;;7.50;93.30;;;;;;5094961;28;20441;-59
2023/04/05 09:33:04;;;;;;;2.78;1.40;;;7.70;91.80;;;;;;5094830;28;20480;-58
2023/04/05 09:35:32;;;;;;;2.20;1.30;;;7.90;90.00;;;;;;5095722;28;20469;-59
2023/04/05 09:38:00;;;;;;;2.45;1.50;;;8.00;88.50;;;;;;5094335;28;20919;-59
2023/04/05 09:40:42;;;;;;;2.90;1.33;;;8.00;85.30;;;;;;5095550;28;20426;-59
2023/04/05 09:43:10;;;;;;;1.98;1.35;;;7.70;86.00;;;;;;5095609;28;20436;-59
2023/04/05 09:45:40;;;;;;;1.50;1.20;;;7.70;87.80;;;;;;5093216;28;20440;-59
2023/04/05 09:48:08;;;;;;;2.15;1.10;;;7.80;86.20;;;;;;5095072;28;20414;-58
2023/04/05 09:50:37;;;;;;;2.90;1.20;;;8.00;85.10;;;;;;5093929;28;20442;-59
2023/04/05 09:53:14;;;;;;;1.80;1.30;;;8.30;84.80;;;;;;5094257;28;20418;-58
2023/04/05 09:55:42;;;;;;;2.42;1.30;;;8.40;80.00;;;;;;5095330;28;20466;-59
2023/04/05 09:58:13;;;;;;;2.50;1.30;;;8.30;82.10;;;;;;5096810;28;20458;-61
2023/04/05 10:00:52;;;;;;;1.92;1.38;;;8.50;82.00;;;;;;5093966;28;20877;-60
2023/04/05 10:03:19;;;;;;;2.60;1.60;;;8.80;81.90;;;;;;5094837;28;20428;-59
2023/04/05 10:05:47;;;;;;;2.20;1.45;;;8.60;77.80;;;;;;5096323;28;20437;-58
2023/04/05 10:08:15;;;;;;;1.93;1.30;;;8.40;78.70;;;;;;5092614;28;20513;-59
2023/04/05 10:10:47;;;;;;;1.88;1.40;;;8.10;78.90;;;;;;5103605;28;20487;-59
2023/04/05 10:13:18;;;;;;;2.00;1.50;;;8.20;81.10;;;;;;5106386;28;20432;-59
2023/04/05 10:15:49;;;;;;;1.70;1.38;;;8.70;80.00;;;;;;5099944;28;20464;-59
2023/04/05 10:18:21;;;;;;;2.30;1.52;;;9.00;78.70;;;;;;5094147;28;20857;-60
2023/04/05 10:20:50;;;;;;;2.53;1.60;;;8.90;73.80;;;;;;5098315;28;20437;-60
2023/04/05 10:23:25;;;;;;;1.75;1.30;;;8.80;73.10;;;;;;5104634;28;20424;-59
2023/04/05 10:26:05;;;;;;;2.17;1.30;;;8.90;76.40;;;;;;5104809;28;20445;-60
2023/04/05 10:28:36;;;;;;;2.33;1.20;;;9.40;74.40;;;;;;5093261;28;20448;-60
2023/04/05 10:31:11;;;;;;;2.30;1.30;;;9.80;71.30;;;;;;5093751;28;20437;-60
2023/04/05 10:33:44;;;;;;;2.30;1.40;;;9.90;67.40;;;;;;5109332;28;20424;-60
2023/04/05 10:36:18;;;;;;;2.10;1.30;;;9.80;66.70;;;;;;5113023;28;20446;-61
2023/04/05 10:38:59;;;;;;;1.60;1.20;;;9.20;67.40;;;;;;5112382;28;20743;-60
2023/04/05 10:41:26;;;;;;;2.08;1.40;;;9.50;69.00;;;;;;5113261;28;20781;-60
2023/04/05 10:43:57;;;;;;;1.60;1.23;;;9.80;67.00;;;;;;5111088;28;20432;-62
2023/04/05 10:46:25;;;;;;;2.40;1.40;;;9.70;70.30;;;;;;5097482;28;20438;-60
2023/04/05 10:49:00;;;;;;;2.00;1.20;;;9.50;66.60;;;;;;5106830;28;20430;-60
2023/04/05 10:51:28;;;;;;;2.10;1.30;;;10.00;65.80;;;;;;5091701;28;20425;-61
2023/04/05 10:53:57;;;;;;;1.60;1.20;;;10.50;65.20;;;;;;5095712;28;20428;-61
2023/04/05 10:56:26;;;;;;;2.20;1.30;;;10.50;63.00;;;;;;5091717;28;20804;-60
2023/04/05 10:58:56;;;;;;;1.90;1.20;;;10.90;62.10;;;;;;5101906;28;20448;-61
2023/04/05 11:01:23;;;;;;;2.30;1.40;;;11.20;62.60;;;;;;5110233;28;20428;-60
2023/04/05 11:03:53;;;;;;;3.45;1.40;;;11.30;58.10;;;;;;5112857;28;20442;-61
2023/04/05 11:06:23;;;;;;;2.40;1.60;;;11.40;60.60;;;;;;5109827;28;20424;-61
2023/04/05 11:08:55;;;;;;;2.13;1.70;;;11.20;57.50;;;;;;5112982;28;20949;-65
2023/04/05 11:11:25;;;;;;;3.60;1.70;;;10.80;57.90;;;;;;5112271;28;20424;-63
2023/04/05 11:13:55;;;;;;;1.70;1.30;;;10.60;60.10;;;;;;5109920;28;20535;-61
2023/04/05 11:16:23;;;;;;;3.17;1.60;;;11.00;61.50;;;;;;5112758;28;20427;-62
2023/04/05 11:18:51;;;;;;;1.90;1.30;;;11.50;57.60;;;;;;5114878;28;20739;-62
2023/04/05 11:21:23;;;;;;;1.70;1.30;;;11.70;55.70;;;;;;5113470;28;20878;-62
2023/04/05 11:24:02;;;;;;;2.78;1.40;;;11.30;55.70;;;;;;5110383;28;20416;-63
2023/04/05 11:26:33;;;;;;;2.63;1.50;;;11.30;57.20;;;;;;5112561;28;20427;-63
2023/04/05 11:29:02;;;;;;;2.25;1.40;;;11.40;55.50;;;;;;5114288;28;20419;-63
2023/04/05 11:31:29;;;;;;;1.90;1.20;;;11.70;55.10;;;;;;5113766;28;20696;-63
2023/04/05 11:33:59;;;;;;;2.30;1.40;;;11.80;55.50;;;;;;5111823;28;20447;-61
2023/04/05 11:36:36;;;;;;;2.00;1.60;;;11.90;53.80;;;;;;5110575;28;20949;-62
2023/04/05 11:39:28;;;;;;;1.92;1.40;;;12.00;54.10;;;;;;5113619;28;20425;-62
2023/04/05 11:41:59;;;;;;;1.98;1.40;;;11.90;52.60;;;;;;5115050;28;20424;-62
2023/04/05 11:44:30;;;;;;;1.97;1.60;;;11.60;54.00;;;;;;5112739;28;20863;-62
2023/04/05 11:47:15;;;;;;;2.10;1.50;;;11.60;53.90;;;;;;5110909;28;20432;-63
2023/04/05 11:49:46;;;;;;;2.30;1.38;;;11.40;54.00;;;;;;5113199;28;20420;-63
2023/04/05 11:52:17;;;;;;;2.10;1.40;;;12.00;53.70;;;;;;5112611;28;20437;-62
2023/04/05 11:54:48;;;;;;;1.60;1.20;;;12.40;53.00;;;;;;5110709;28;20424;-62
2023/04/05 11:57:19;;;;;;;1.60;1.30;;;12.70;50.30;;;;;;5111023;28;20700;-63
2023/04/05 11:59:50;;;;;;;2.42;1.40;;;12.50;50.00;;;;;;5102680;28;20876;-63
2023/04/05 12:02:17;;;;;;;2.10;1.23;;;12.20;48.90;;;;;;5095814;28;20436;-64
2023/04/05 12:04:44;;;;;;;1.80;1.30;;;12.10;52.40;;;;;;5092591;28;20860;-62
2023/04/05 12:07:16;;;;;;;2.33;1.50;;;12.50;51.30;;;;;;5087450;28;20742;-62
2023/04/05 12:10:04;;;;;;;2.40;1.33;;;13.00;48.40;;;;;;5093394;28;20420;-61
2023/04/05 12:12:35;;;;;;;1.70;1.10;;;13.40;49.20;;;;;;5095321;28;20961;-62
2023/04/05 12:15:07;;;;;;;1.60;1.20;;;13.20;49.40;;;;;;5105245;28;20928;-62
2023/04/05 12:17:41;;;;;;;2.10;1.30;;;13.20;48.60;;;;;;5109116;28;20697;-62
2023/04/05 12:20:09;;;;;;;4.80;1.40;;;13.00;47.50;;;;;;5092833;28;20452;-62
2023/04/05 12:22:37;;;;;;;2.20;1.50;;;12.30;47.40;;;;;;5085777;28;20441;-62
2023/04/05 12:25:05;;;;;;;2.47;1.70;;;11.80;48.70;;;;;;5085228;28;20516;-61
2023/04/05 12:27:32;;;;;;;2.17;1.30;;;11.50;48.60;;;;;;5106397;28;20435;-62
2023/04/05 12:30:15;;;;;;;1.73;1.30;;;11.80;51.10;;;;;;5095202;28;20824;-63
2023/04/05 12:32:44;;;;;;;1.90;1.30;;;12.60;48.70;;;;;;5098104;28;20424;-63
2023/04/05 12:35:13;;;;;;;2.00;1.30;;;12.90;48.30;;;;;;5110991;28;20519;-62
2023/04/05 12:37:40;;;;;;;2.20;1.20;;;13.10;47.30;;;;;;5097249;28;20726;-62
2023/04/05 12:40:11;;;;;;;1.63;1.20;;;13.00;48.30;;;;;;5089649;28;20435;-64
2023/04/05 12:42:42;;;;;;;1.80;1.10;;;13.00;47.50;;;;;;5090712;28;20425;-63
2023/04/05 12:45:14;;;;;;;2.83;1.48;;;13.50;46.90;;;;;;5091192;28;20422;-65
2023/04/05 12:47:52;;;;;;;2.25;1.35;;;13.50;45.70;;;;;;5101849;28;21020;-66
2023/04/05 12:50:26;;;;;;;1.80;1.30;;;13.40;45.50;;;;;;5093430;28;20538;-64
2023/04/05 12:53:17;;;;;;;1.90;1.40;;;13.40;46.60;;;;;;5090539;28;20418;-69
2023/04/05 12:55:49;;;;;;;1.55;1.30;;;13.60;45.80;;;;;;5070112;28;20446;-63
2023/04/05 12:58:20;;;;;;;1.80;1.30;;;13.60;45.60;;;;;;5091496;28;20849;-63
2023/04/05 13:00:48;;;;;;;1.75;1.20;;;13.60;45.50;;;;;;5092235;28;20433;-61
2023/04/05 13:03:18;;;;;;;1.70;1.50;;;13.00;44.70;;;;;;5090683;28;20417;-62
2023/04/05 13:05:48;;;;;;;2.00;1.30;;;12.60;45.60;;;;;;5090893;28;20555;-61